sensor_id;sensor_type;location;lat;lon;timestamp;P1;durP1;ratioP1;P2;durP2;ratioP2
12469;SDS011;36499;46.484;13.832;2023-08-17T00:00:22;11.47;;;10.30;;
12469;SDS011;36499;46.484;13.832;2023-08-17T00:02:49;11.77;;;10.70;;
12469;SDS011;36499;46.484;13.832;2023-08-17T00:05:17;12.03;;;10.83;;
12469;SDS011;36499;46.484;13.832;2023-08-17T00:07:44;11.83;;;10.83;;
12469;SDS011;36499;46.484;13.832;2023-08-17T00:10:12;10.87;;;9.77;;
12469;SDS011;36499;46.484;13.832;2023-08-17T00:12:40;12.57;;;10.67;;
12469;SDS011;36499;46.484;13.832;2023-08-17T00:15:07;11.07;;;9.97;;
12469;SDS011;36499;46.484;13.832;2023-08-17T00:17:35;11.60;;;10.50;;
12469;SDS011;36499;46.484;13.832;2023-08-17T00:20:02;11.73;;;10.23;;
12469;SDS011;36499;46.484;13.832;2023-08-17T00:22:31;11.03;;;9.93;;
12469;SDS011;36499;46.484;13.832;2023-08-17T00:24:58;10.97;;;8.87;;
12469;SDS011;36499;46.484;13.832;2023-08-17T00:27:26;11.37;;;10.13;;
12469;SDS011;36499;46.484;13.832;2023-08-17T00:29:54;11.37;;;10.17;;
12469;SDS011;36499;46.484;13.832;2023-08-17T00:32:21;12.17;;;11.10;;
12469;SDS011;36499;46.484;13.832;2023-08-17T00:34:48;12.37;;;11.27;;
12469;SDS011;36499;46.484;13.832;2023-08-17T00:37:15;11.87;;;10.77;;
12469;SDS011;36499;46.484;13.832;2023-08-17T00:39:42;12.23;;;10.20;;
12469;SDS011;36499;46.484;13.832;2023-08-17T00:42:09;12.20;;;10.83;;
12469;SDS011;36499;46.484;13.832;2023-08-17T00:44:37;11.47;;;10.27;;
12469;SDS011;36499;46.484;13.832;2023-08-17T00:47:04;12.40;;;11.10;;
12469;SDS011;36499;46.484;13.832;2023-08-17T00:49:31;13.03;;;11.73;;
12469;SDS011;36499;46.484;13.832;2023-08-17T00:52:00;12.10;;;11.00;;
12469;SDS011;36499;46.484;13.832;2023-08-17T00:54:30;12.13;;;11.03;;
12469;SDS011;36499;46.484;13.832;2023-08-17T00:56:58;12.13;;;10.93;;
12469;SDS011;36499;46.484;13.832;2023-08-17T00:59:26;12.63;;;11.43;;
12469;SDS011;36499;46.484;13.832;2023-08-17T01:01:56;12.43;;;11.20;;
12469;SDS011;36499;46.484;13.832;2023-08-17T01:04:23;14.30;;;11.47;;
12469;SDS011;36499;46.484;13.832;2023-08-17T01:06:50;11.73;;;10.67;;
12469;SDS011;36499;46.484;13.832;2023-08-17T01:09:17;12.07;;;10.83;;
12469;SDS011;36499;46.484;13.832;2023-08-17T01:11:45;11.47;;;10.37;;
12469;SDS011;36499;46.484;13.832;2023-08-17T01:14:21;12.80;;;10.77;;
12469;SDS011;36499;46.484;13.832;2023-08-17T01:16:56;12.80;;;11.10;;
12469;SDS011;36499;46.484;13.832;2023-08-17T01:19:32;13.17;;;11.97;;
12469;SDS011;36499;46.484;13.832;2023-08-17T01:22:03;13.30;;;11.73;;
12469;SDS011;36499;46.484;13.832;2023-08-17T01:24:33;12.17;;;11.07;;
12469;SDS011;36499;46.484;13.832;2023-08-17T01:27:00;11.57;;;10.57;;
12469;SDS011;36499;46.484;13.832;2023-08-17T01:29:27;12.23;;;10.90;;
12469;SDS011;36499;46.484;13.832;2023-08-17T01:31:57;12.80;;;11.47;;
12469;SDS011;36499;46.484;13.832;2023-08-17T01:34:35;12.53;;;11.43;;
12469;SDS011;36499;46.484;13.832;2023-08-17T01:37:10;12.07;;;11.00;;
12469;SDS011;36499;46.484;13.832;2023-08-17T01:39:43;11.67;;;10.57;;
12469;SDS011;36499;46.484;13.832;2023-08-17T01:42:18;11.97;;;10.87;;
12469;SDS011;36499;46.484;13.832;2023-08-17T01:44:46;12.40;;;11.10;;
12469;SDS011;36499;46.484;13.832;2023-08-17T01:47:13;11.33;;;10.20;;
12469;SDS011;36499;46.484;13.832;2023-08-17T01:49:41;11.07;;;10.03;;
12469;SDS011;36499;46.484;13.832;2023-08-17T01:52:08;10.30;;;9.27;;
12469;SDS011;36499;46.484;13.832;2023-08-17T01:54:35;12.97;;;10.43;;
12469;SDS011;36499;46.484;13.832;2023-08-17T01:57:02;13.63;;;11.50;;
12469;SDS011;36499;46.484;13.832;2023-08-17T01:59:29;11.60;;;10.50;;
12469;SDS011;36499;46.484;13.832;2023-08-17T02:01:56;11.80;;;10.60;;
12469;SDS011;36499;46.484;13.832;2023-08-17T02:04:24;12.87;;;10.77;;
12469;SDS011;36499;46.484;13.832;2023-08-17T02:06:51;12.90;;;10.80;;
12469;SDS011;36499;46.484;13.832;2023-08-17T02:09:18;11.93;;;10.77;;
12469;SDS011;36499;46.484;13.832;2023-08-17T02:11:45;12.40;;;11.20;;
12469;SDS011;36499;46.484;13.832;2023-08-17T02:14:13;12.83;;;11.50;;
12469;SDS011;36499;46.484;13.832;2023-08-17T02:16:41;12.87;;;11.27;;
12469;SDS011;36499;46.484;13.832;2023-08-17T02:19:08;12.50;;;11.30;;
12469;SDS011;36499;46.484;13.832;2023-08-17T02:21:35;13.30;;;12.20;;
12469;SDS011;36499;46.484;13.832;2023-08-17T02:24:02;11.83;;;10.73;;
12469;SDS011;36499;46.484;13.832;2023-08-17T02:26:29;12.43;;;11.13;;
12469;SDS011;36499;46.484;13.832;2023-08-17T02:28:57;12.40;;;11.23;;
12469;SDS011;36499;46.484;13.832;2023-08-17T02:31:25;13.27;;;10.70;;
12469;SDS011;36499;46.484;13.832;2023-08-17T02:33:52;10.83;;;9.83;;
12469;SDS011;36499;46.484;13.832;2023-08-17T02:36:23;11.10;;;10.10;;
12469;SDS011;36499;46.484;13.832;2023-08-17T02:38:50;10.63;;;9.70;;
12469;SDS011;36499;46.484;13.832;2023-08-17T02:41:17;11.37;;;10.37;;
12469;SDS011;36499;46.484;13.832;2023-08-17T02:43:44;12.77;;;10.80;;
12469;SDS011;36499;46.484;13.832;2023-08-17T02:46:11;11.73;;;10.73;;
12469;SDS011;36499;46.484;13.832;2023-08-17T02:48:39;13.47;;;11.90;;
12469;SDS011;36499;46.484;13.832;2023-08-17T02:51:06;12.07;;;10.97;;
12469;SDS011;36499;46.484;13.832;2023-08-17T02:53:33;12.10;;;10.80;;
12469;SDS011;36499;46.484;13.832;2023-08-17T02:56:01;11.53;;;10.47;;
12469;SDS011;36499;46.484;13.832;2023-08-17T02:58:28;12.57;;;10.27;;
12469;SDS011;36499;46.484;13.832;2023-08-17T03:00:55;11.87;;;10.23;;
12469;SDS011;36499;46.484;13.832;2023-08-17T03:03:22;12.20;;;10.17;;
12469;SDS011;36499;46.484;13.832;2023-08-17T03:05:50;12.20;;;10.73;;
12469;SDS011;36499;46.484;13.832;2023-08-17T03:08:18;13.07;;;11.67;;
12469;SDS011;36499;46.484;13.832;2023-08-17T03:10:45;12.30;;;11.17;;
12469;SDS011;36499;46.484;13.832;2023-08-17T03:13:12;14.10;;;11.07;;
12469;SDS011;36499;46.484;13.832;2023-08-17T03:15:39;12.90;;;11.60;;
12469;SDS011;36499;46.484;13.832;2023-08-17T03:18:06;12.40;;;11.17;;
12469;SDS011;36499;46.484;13.832;2023-08-17T03:20:33;11.90;;;10.50;;
12469;SDS011;36499;46.484;13.832;2023-08-17T03:23:02;12.50;;;11.27;;
12469;SDS011;36499;46.484;13.832;2023-08-17T03:25:31;11.70;;;10.67;;
12469;SDS011;36499;46.484;13.832;2023-08-17T03:27:58;12.20;;;11.00;;
12469;SDS011;36499;46.484;13.832;2023-08-17T03:30:25;14.33;;;11.77;;
12469;SDS011;36499;46.484;13.832;2023-08-17T03:32:52;13.60;;;12.07;;
12469;SDS011;36499;46.484;13.832;2023-08-17T03:35:19;13.77;;;12.47;;
12469;SDS011;36499;46.484;13.832;2023-08-17T03:37:47;17.50;;;12.83;;
12469;SDS011;36499;46.484;13.832;2023-08-17T03:40:15;15.93;;;12.70;;
12469;SDS011;36499;46.484;13.832;2023-08-17T03:42:42;13.23;;;12.10;;
12469;SDS011;36499;46.484;13.832;2023-08-17T03:45:09;14.07;;;12.70;;
12469;SDS011;36499;46.484;13.832;2023-08-17T03:47:36;12.77;;;11.57;;
12469;SDS011;36499;46.484;13.832;2023-08-17T03:50:04;13.10;;;11.83;;
12469;SDS011;36499;46.484;13.832;2023-08-17T03:52:32;14.30;;;12.00;;
12469;SDS011;36499;46.484;13.832;2023-08-17T03:54:59;12.43;;;11.33;;
12469;SDS011;36499;46.484;13.832;2023-08-17T03:57:27;12.90;;;11.70;;
12469;SDS011;36499;46.484;13.832;2023-08-17T03:59:54;14.27;;;12.70;;
12469;SDS011;36499;46.484;13.832;2023-08-17T04:02:21;13.73;;;12.43;;
12469;SDS011;36499;46.484;13.832;2023-08-17T04:04:48;13.27;;;12.00;;
12469;SDS011;36499;46.484;13.832;2023-08-17T04:07:20;12.60;;;11.50;;
12469;SDS011;36499;46.484;13.832;2023-08-17T04:09:47;13.23;;;11.73;;
12469;SDS011;36499;46.484;13.832;2023-08-17T04:12:15;13.20;;;11.90;;
12469;SDS011;36499;46.484;13.832;2023-08-17T04:14:44;13.67;;;12.20;;
12469;SDS011;36499;46.484;13.832;2023-08-17T04:17:11;13.97;;;12.50;;
12469;SDS011;36499;46.484;13.832;2023-08-17T04:19:38;13.70;;;12.27;;
12469;SDS011;36499;46.484;13.832;2023-08-17T04:22:05;14.30;;;12.20;;
12469;SDS011;36499;46.484;13.832;2023-08-17T04:24:32;11.53;;;10.47;;
12469;SDS011;36499;46.484;13.832;2023-08-17T04:26:59;12.77;;;11.47;;
12469;SDS011;36499;46.484;13.832;2023-08-17T04:29:26;12.13;;;11.13;;
12469;SDS011;36499;46.484;13.832;2023-08-17T04:31:55;14.17;;;11.90;;
12469;SDS011;36499;46.484;13.832;2023-08-17T04:34:22;12.97;;;11.67;;
12469;SDS011;36499;46.484;13.832;2023-08-17T04:36:49;12.70;;;11.67;;
12469;SDS011;36499;46.484;13.832;2023-08-17T04:39:16;12.60;;;11.40;;
12469;SDS011;36499;46.484;13.832;2023-08-17T04:41:43;15.87;;;12.60;;
12469;SDS011;36499;46.484;13.832;2023-08-17T04:44:10;14.23;;;11.93;;
12469;SDS011;36499;46.484;13.832;2023-08-17T04:46:37;13.17;;;11.87;;
12469;SDS011;36499;46.484;13.832;2023-08-17T04:49:06;14.53;;;12.50;;
12469;SDS011;36499;46.484;13.832;2023-08-17T04:51:33;13.40;;;12.00;;
12469;SDS011;36499;46.484;13.832;2023-08-17T04:54:00;12.93;;;11.77;;
12469;SDS011;36499;46.484;13.832;2023-08-17T04:56:27;13.70;;;12.40;;
12469;SDS011;36499;46.484;13.832;2023-08-17T04:58:54;13.17;;;11.87;;
12469;SDS011;36499;46.484;13.832;2023-08-17T05:01:21;13.50;;;12.30;;
12469;SDS011;36499;46.484;13.832;2023-08-17T05:03:48;14.03;;;12.63;;
12469;SDS011;36499;46.484;13.832;2023-08-17T05:06:18;14.00;;;12.30;;
12469;SDS011;36499;46.484;13.832;2023-08-17T05:08:45;14.03;;;12.63;;
12469;SDS011;36499;46.484;13.832;2023-08-17T05:11:12;13.17;;;12.07;;
12469;SDS011;36499;46.484;13.832;2023-08-17T05:13:39;14.43;;;12.83;;
12469;SDS011;36499;46.484;13.832;2023-08-17T05:16:06;14.33;;;12.93;;
12469;SDS011;36499;46.484;13.832;2023-08-17T05:18:33;13.27;;;12.00;;
12469;SDS011;36499;46.484;13.832;2023-08-17T05:21:00;14.00;;;12.70;;
12469;SDS011;36499;46.484;13.832;2023-08-17T05:23:28;13.93;;;12.60;;
12469;SDS011;36499;46.484;13.832;2023-08-17T05:25:55;13.43;;;12.10;;
12469;SDS011;36499;46.484;13.832;2023-08-17T05:28:22;13.70;;;12.43;;
12469;SDS011;36499;46.484;13.832;2023-08-17T05:30:50;13.37;;;12.17;;
12469;SDS011;36499;46.484;13.832;2023-08-17T05:33:18;14.43;;;12.97;;
12469;SDS011;36499;46.484;13.832;2023-08-17T05:35:45;13.43;;;12.27;;
12469;SDS011;36499;46.484;13.832;2023-08-17T05:38:12;14.73;;;13.33;;
12469;SDS011;36499;46.484;13.832;2023-08-17T05:40:41;15.00;;;13.63;;
12469;SDS011;36499;46.484;13.832;2023-08-17T05:43:08;15.10;;;13.57;;
12469;SDS011;36499;46.484;13.832;2023-08-17T05:45:35;14.23;;;12.67;;
12469;SDS011;36499;46.484;13.832;2023-08-17T05:48:03;14.57;;;13.17;;
12469;SDS011;36499;46.484;13.832;2023-08-17T05:50:30;14.20;;;12.60;;
12469;SDS011;36499;46.484;13.832;2023-08-17T05:52:57;14.70;;;13.30;;
12469;SDS011;36499;46.484;13.832;2023-08-17T05:55:24;13.17;;;11.87;;
12469;SDS011;36499;46.484;13.832;2023-08-17T05:57:53;14.10;;;12.80;;
12469;SDS011;36499;46.484;13.832;2023-08-17T06:00:20;13.70;;;12.50;;
12469;SDS011;36499;46.484;13.832;2023-08-17T06:02:47;13.97;;;12.77;;
12469;SDS011;36499;46.484;13.832;2023-08-17T06:05:16;13.63;;;12.07;;
12469;SDS011;36499;46.484;13.832;2023-08-17T06:07:43;15.13;;;13.17;;
12469;SDS011;36499;46.484;13.832;2023-08-17T06:10:10;13.33;;;12.07;;
12469;SDS011;36499;46.484;13.832;2023-08-17T06:12:38;13.73;;;11.30;;
12469;SDS011;36499;46.484;13.832;2023-08-17T06:15:07;11.83;;;10.83;;
12469;SDS011;36499;46.484;13.832;2023-08-17T06:17:35;11.57;;;10.57;;
12469;SDS011;36499;46.484;13.832;2023-08-17T06:20:02;13.83;;;11.30;;
12469;SDS011;36499;46.484;13.832;2023-08-17T06:22:30;12.20;;;10.77;;
12469;SDS011;36499;46.484;13.832;2023-08-17T06:24:57;10.87;;;9.90;;
12469;SDS011;36499;46.484;13.832;2023-08-17T06:27:24;11.80;;;10.67;;
12469;SDS011;36499;46.484;13.832;2023-08-17T06:29:51;12.00;;;10.87;;
12469;SDS011;36499;46.484;13.832;2023-08-17T06:32:20;11.90;;;10.90;;
12469;SDS011;36499;46.484;13.832;2023-08-17T06:34:47;11.90;;;10.83;;
12469;SDS011;36499;46.484;13.832;2023-08-17T06:37:14;11.77;;;10.67;;
12469;SDS011;36499;46.484;13.832;2023-08-17T06:39:41;11.87;;;10.77;;
12469;SDS011;36499;46.484;13.832;2023-08-17T06:42:08;12.13;;;10.93;;
12469;SDS011;36499;46.484;13.832;2023-08-17T06:44:35;11.90;;;10.70;;
12469;SDS011;36499;46.484;13.832;2023-08-17T06:47:02;11.10;;;10.10;;
12469;SDS011;36499;46.484;13.832;2023-08-17T06:49:31;11.53;;;10.43;;
12469;SDS011;36499;46.484;13.832;2023-08-17T06:51:58;11.27;;;10.27;;
12469;SDS011;36499;46.484;13.832;2023-08-17T06:54:25;11.93;;;10.83;;
12469;SDS011;36499;46.484;13.832;2023-08-17T06:56:52;10.87;;;9.93;;
12469;SDS011;36499;46.484;13.832;2023-08-17T06:59:19;10.77;;;9.90;;
12469;SDS011;36499;46.484;13.832;2023-08-17T07:01:47;13.87;;;10.23;;
12469;SDS011;36499;46.484;13.832;2023-08-17T07:04:14;11.63;;;10.53;;
12469;SDS011;36499;46.484;13.832;2023-08-17T07:06:43;11.37;;;10.27;;
12469;SDS011;36499;46.484;13.832;2023-08-17T07:09:09;9.63;;;8.83;;
12469;SDS011;36499;46.484;13.832;2023-08-17T07:11:37;10.93;;;10.00;;
12469;SDS011;36499;46.484;13.832;2023-08-17T07:14:04;10.87;;;9.87;;
12469;SDS011;36499;46.484;13.832;2023-08-17T07:16:32;11.10;;;10.00;;
12469;SDS011;36499;46.484;13.832;2023-08-17T07:18:59;10.83;;;9.73;;
12469;SDS011;36499;46.484;13.832;2023-08-17T07:21:26;10.90;;;9.90;;
12469;SDS011;36499;46.484;13.832;2023-08-17T07:23:55;9.77;;;8.90;;
12469;SDS011;36499;46.484;13.832;2023-08-17T07:26:22;13.63;;;9.40;;
12469;SDS011;36499;46.484;13.832;2023-08-17T07:28:49;10.73;;;9.83;;
12469;SDS011;36499;46.484;13.832;2023-08-17T07:31:16;9.87;;;9.00;;
12469;SDS011;36499;46.484;13.832;2023-08-17T07:33:43;10.10;;;9.20;;
12469;SDS011;36499;46.484;13.832;2023-08-17T07:36:10;9.80;;;8.93;;
12469;SDS011;36499;46.484;13.832;2023-08-17T07:38:37;9.90;;;9.00;;
12469;SDS011;36499;46.484;13.832;2023-08-17T07:41:06;9.50;;;8.70;;
12469;SDS011;36499;46.484;13.832;2023-08-17T07:43:33;10.30;;;9.20;;
12469;SDS011;36499;46.484;13.832;2023-08-17T07:46:00;10.93;;;8.87;;
12469;SDS011;36499;46.484;13.832;2023-08-17T07:48:27;8.90;;;8.17;;
12469;SDS011;36499;46.484;13.832;2023-08-17T07:50:58;10.60;;;8.60;;
12469;SDS011;36499;46.484;13.832;2023-08-17T07:53:26;9.23;;;8.30;;
12469;SDS011;36499;46.484;13.832;2023-08-17T07:55:53;8.80;;;7.90;;
12469;SDS011;36499;46.484;13.832;2023-08-17T07:58:21;8.50;;;7.80;;
12469;SDS011;36499;46.484;13.832;2023-08-17T08:00:48;8.80;;;7.97;;
12469;SDS011;36499;46.484;13.832;2023-08-17T08:03:15;8.73;;;8.03;;
12469;SDS011;36499;46.484;13.832;2023-08-17T08:05:42;9.10;;;8.20;;
12469;SDS011;36499;46.484;13.832;2023-08-17T08:08:09;10.43;;;9.37;;
12469;SDS011;36499;46.484;13.832;2023-08-17T08:10:36;12.27;;;10.17;;
12469;SDS011;36499;46.484;13.832;2023-08-17T08:13:04;9.27;;;8.43;;
12469;SDS011;36499;46.484;13.832;2023-08-17T08:15:32;9.43;;;8.53;;
12469;SDS011;36499;46.484;13.832;2023-08-17T08:17:59;7.93;;;7.20;;
12469;SDS011;36499;46.484;13.832;2023-08-17T08:20:26;8.90;;;8.10;;
12469;SDS011;36499;46.484;13.832;2023-08-17T08:22:53;8.47;;;7.57;;
12469;SDS011;36499;46.484;13.832;2023-08-17T08:25:20;8.67;;;7.30;;
12469;SDS011;36499;46.484;13.832;2023-08-17T08:27:47;8.00;;;7.30;;
12469;SDS011;36499;46.484;13.832;2023-08-17T08:30:14;7.93;;;7.20;;
12469;SDS011;36499;46.484;13.832;2023-08-17T08:32:44;8.00;;;7.20;;
12469;SDS011;36499;46.484;13.832;2023-08-17T08:35:11;7.60;;;7.00;;
12469;SDS011;36499;46.484;13.832;2023-08-17T08:37:38;7.50;;;6.90;;
12469;SDS011;36499;46.484;13.832;2023-08-17T08:40:06;7.90;;;7.13;;
12469;SDS011;36499;46.484;13.832;2023-08-17T08:42:39;7.90;;;7.23;;
12469;SDS011;36499;46.484;13.832;2023-08-17T08:45:07;7.50;;;6.80;;
12469;SDS011;36499;46.484;13.832;2023-08-17T08:47:35;7.43;;;6.73;;
12469;SDS011;36499;46.484;13.832;2023-08-17T08:50:04;7.80;;;6.80;;
12469;SDS011;36499;46.484;13.832;2023-08-17T08:52:33;6.97;;;6.37;;
12469;SDS011;36499;46.484;13.832;2023-08-17T08:55:03;7.40;;;6.67;;
12469;SDS011;36499;46.484;13.832;2023-08-17T08:57:38;8.53;;;7.43;;
12469;SDS011;36499;46.484;13.832;2023-08-17T09:00:07;8.07;;;7.10;;
12469;SDS011;36499;46.484;13.832;2023-08-17T09:02:35;7.80;;;6.93;;
12469;SDS011;36499;46.484;13.832;2023-08-17T09:05:05;7.70;;;7.00;;
12469;SDS011;36499;46.484;13.832;2023-08-17T09:07:35;7.37;;;6.77;;
12469;SDS011;36499;46.484;13.832;2023-08-17T09:10:04;7.53;;;6.93;;
12469;SDS011;36499;46.484;13.832;2023-08-17T09:12:32;7.40;;;6.70;;
12469;SDS011;36499;46.484;13.832;2023-08-17T09:14:59;8.20;;;6.83;;
12469;SDS011;36499;46.484;13.832;2023-08-17T09:17:26;7.37;;;6.77;;
12469;SDS011;36499;46.484;13.832;2023-08-17T09:19:54;7.73;;;6.93;;
12469;SDS011;36499;46.484;13.832;2023-08-17T09:22:26;6.97;;;6.40;;
12469;SDS011;36499;46.484;13.832;2023-08-17T09:25:05;8.10;;;6.70;;
12469;SDS011;36499;46.484;13.832;2023-08-17T09:27:33;7.33;;;6.63;;
12469;SDS011;36499;46.484;13.832;2023-08-17T09:30:02;9.50;;;7.00;;
12469;SDS011;36499;46.484;13.832;2023-08-17T09:32:30;8.37;;;7.30;;
12469;SDS011;36499;46.484;13.832;2023-08-17T09:35:00;7.87;;;7.17;;
12469;SDS011;36499;46.484;13.832;2023-08-17T09:37:30;7.20;;;6.50;;
12469;SDS011;36499;46.484;13.832;2023-08-17T09:39:58;8.97;;;7.10;;
12469;SDS011;36499;46.484;13.832;2023-08-17T09:42:25;7.07;;;6.37;;
12469;SDS011;36499;46.484;13.832;2023-08-17T09:44:53;8.43;;;7.03;;
12469;SDS011;36499;46.484;13.832;2023-08-17T09:47:21;7.50;;;6.90;;
12469;SDS011;36499;46.484;13.832;2023-08-17T09:49:48;7.80;;;7.10;;
12469;SDS011;36499;46.484;13.832;2023-08-17T09:52:18;8.10;;;6.40;;
12469;SDS011;36499;46.484;13.832;2023-08-17T09:54:47;7.07;;;6.40;;
12469;SDS011;36499;46.484;13.832;2023-08-17T09:57:14;10.17;;;7.00;;
12469;SDS011;36499;46.484;13.832;2023-08-17T09:59:42;7.63;;;6.83;;
12469;SDS011;36499;46.484;13.832;2023-08-17T10:02:12;8.13;;;6.83;;
12469;SDS011;36499;46.484;13.832;2023-08-17T10:04:45;7.63;;;6.37;;
12469;SDS011;36499;46.484;13.832;2023-08-17T10:07:18;7.37;;;6.70;;
12469;SDS011;36499;46.484;13.832;2023-08-17T10:09:49;7.73;;;6.30;;
12469;SDS011;36499;46.484;13.832;2023-08-17T10:12:27;6.87;;;6.27;;
12469;SDS011;36499;46.484;13.832;2023-08-17T10:14:59;7.90;;;6.73;;
12469;SDS011;36499;46.484;13.832;2023-08-17T10:17:35;7.10;;;6.50;;
12469;SDS011;36499;46.484;13.832;2023-08-17T10:20:14;6.83;;;6.13;;
12469;SDS011;36499;46.484;13.832;2023-08-17T10:22:46;8.87;;;6.27;;
12469;SDS011;36499;46.484;13.832;2023-08-17T10:25:21;7.10;;;6.50;;
12469;SDS011;36499;46.484;13.832;2023-08-17T10:27:52;7.77;;;7.07;;
12469;SDS011;36499;46.484;13.832;2023-08-17T10:30:21;7.07;;;6.37;;
12469;SDS011;36499;46.484;13.832;2023-08-17T10:32:48;8.53;;;6.53;;
12469;SDS011;36499;46.484;13.832;2023-08-17T10:35:15;7.40;;;6.40;;
12469;SDS011;36499;46.484;13.832;2023-08-17T10:37:43;7.47;;;6.47;;
12469;SDS011;36499;46.484;13.832;2023-08-17T10:40:10;7.33;;;6.63;;
12469;SDS011;36499;46.484;13.832;2023-08-17T10:42:39;8.70;;;6.53;;
12469;SDS011;36499;46.484;13.832;2023-08-17T10:51:03;6.83;;;6.27;;
12469;SDS011;36499;46.484;13.832;2023-08-17T10:53:37;8.83;;;6.00;;
12469;SDS011;36499;46.484;13.832;2023-08-17T10:56:08;6.80;;;6.20;;
12469;SDS011;36499;46.484;13.832;2023-08-17T10:58:40;6.70;;;6.10;;
12469;SDS011;36499;46.484;13.832;2023-08-17T11:01:10;6.57;;;6.07;;
12469;SDS011;36499;46.484;13.832;2023-08-17T11:03:39;8.07;;;6.03;;
12469;SDS011;36499;46.484;13.832;2023-08-17T11:06:15;8.33;;;6.33;;
12469;SDS011;36499;46.484;13.832;2023-08-17T11:08:53;7.40;;;6.50;;
12469;SDS011;36499;46.484;13.832;2023-08-17T11:11:22;7.47;;;6.33;;
12469;SDS011;36499;46.484;13.832;2023-08-17T11:13:52;10.07;;;6.10;;
12469;SDS011;36499;46.484;13.832;2023-08-17T11:16:20;7.50;;;6.23;;
12469;SDS011;36499;46.484;13.832;2023-08-17T11:18:48;8.70;;;6.13;;
12469;SDS011;36499;46.484;13.832;2023-08-17T11:21:16;9.53;;;6.33;;
12469;SDS011;36499;46.484;13.832;2023-08-17T11:23:43;8.00;;;5.57;;
12469;SDS011;36499;46.484;13.832;2023-08-17T11:26:10;6.80;;;6.20;;
12469;SDS011;36499;46.484;13.832;2023-08-17T11:28:38;11.53;;;8.20;;
12469;SDS011;36499;46.484;13.832;2023-08-17T11:31:08;7.60;;;6.07;;
12469;SDS011;36499;46.484;13.832;2023-08-17T11:33:38;8.00;;;5.90;;
12469;SDS011;36499;46.484;13.832;2023-08-17T11:36:06;6.63;;;6.00;;
12469;SDS011;36499;46.484;13.832;2023-08-17T11:38:35;6.37;;;5.73;;
12469;SDS011;36499;46.484;13.832;2023-08-17T11:41:04;6.87;;;6.17;;
12469;SDS011;36499;46.484;13.832;2023-08-17T11:43:33;6.33;;;5.80;;
12469;SDS011;36499;46.484;13.832;2023-08-17T11:46:01;7.03;;;5.63;;
12469;SDS011;36499;46.484;13.832;2023-08-17T11:48:30;7.77;;;6.10;;
12469;SDS011;36499;46.484;13.832;2023-08-17T11:50:57;8.20;;;6.10;;
12469;SDS011;36499;46.484;13.832;2023-08-17T11:53:32;9.27;;;6.47;;
12469;SDS011;36499;46.484;13.832;2023-08-17T11:56:00;8.93;;;7.13;;
12469;SDS011;36499;46.484;13.832;2023-08-17T12:01:13;6.67;;;6.07;;
12469;SDS011;36499;46.484;13.832;2023-08-17T12:03:42;7.33;;;5.70;;
12469;SDS011;36499;46.484;13.832;2023-08-17T12:06:10;6.40;;;5.80;;
12469;SDS011;36499;46.484;13.832;2023-08-17T12:08:38;7.37;;;6.67;;
12469;SDS011;36499;46.484;13.832;2023-08-17T12:11:08;7.77;;;6.20;;
12469;SDS011;36499;46.484;13.832;2023-08-17T12:13:35;9.33;;;7.17;;
12469;SDS011;36499;46.484;13.832;2023-08-17T12:16:02;8.07;;;6.17;;
12469;SDS011;36499;46.484;13.832;2023-08-17T12:18:31;7.10;;;5.90;;
12469;SDS011;36499;46.484;13.832;2023-08-17T12:21:00;8.27;;;6.17;;
12469;SDS011;36499;46.484;13.832;2023-08-17T12:23:29;6.10;;;5.60;;
12469;SDS011;36499;46.484;13.832;2023-08-17T12:25:59;6.87;;;5.63;;
12469;SDS011;36499;46.484;13.832;2023-08-17T12:28:26;6.80;;;6.20;;
12469;SDS011;36499;46.484;13.832;2023-08-17T12:30:57;6.43;;;5.83;;
12469;SDS011;36499;46.484;13.832;2023-08-17T12:33:25;6.27;;;5.67;;
12469;SDS011;36499;46.484;13.832;2023-08-17T12:35:53;6.47;;;5.77;;
12469;SDS011;36499;46.484;13.832;2023-08-17T12:38:23;6.60;;;6.00;;
12469;SDS011;36499;46.484;13.832;2023-08-17T12:40:51;6.30;;;5.70;;
12469;SDS011;36499;46.484;13.832;2023-08-17T12:43:20;6.90;;;6.30;;
12469;SDS011;36499;46.484;13.832;2023-08-17T12:45:47;6.97;;;6.27;;
12469;SDS011;36499;46.484;13.832;2023-08-17T12:48:14;5.93;;;5.43;;
12469;SDS011;36499;46.484;13.832;2023-08-17T12:50:41;6.40;;;5.80;;
12469;SDS011;36499;46.484;13.832;2023-08-17T12:53:08;7.63;;;6.87;;
12469;SDS011;36499;46.484;13.832;2023-08-17T12:55:37;6.20;;;5.60;;
12469;SDS011;36499;46.484;13.832;2023-08-17T12:58:04;8.13;;;6.60;;
12469;SDS011;36499;46.484;13.832;2023-08-17T13:00:34;6.40;;;5.60;;
12469;SDS011;36499;46.484;13.832;2023-08-17T13:03:01;6.00;;;5.40;;
12469;SDS011;36499;46.484;13.832;2023-08-17T13:05:28;6.97;;;5.80;;
12469;SDS011;36499;46.484;13.832;2023-08-17T13:07:55;7.73;;;6.70;;
12469;SDS011;36499;46.484;13.832;2023-08-17T13:10:22;7.53;;;6.33;;
12469;SDS011;36499;46.484;13.832;2023-08-17T13:12:50;6.73;;;6.10;;
12469;SDS011;36499;46.484;13.832;2023-08-17T13:15:19;6.90;;;6.00;;
12469;SDS011;36499;46.484;13.832;2023-08-17T13:17:47;6.33;;;5.60;;
12469;SDS011;36499;46.484;13.832;2023-08-17T13:20:14;6.80;;;6.07;;
12469;SDS011;36499;46.484;13.832;2023-08-17T13:22:41;6.40;;;5.80;;
12469;SDS011;36499;46.484;13.832;2023-08-17T13:25:08;6.20;;;5.70;;
12469;SDS011;36499;46.484;13.832;2023-08-17T13:27:35;6.23;;;5.63;;
12469;SDS011;36499;46.484;13.832;2023-08-17T13:30:04;7.80;;;6.13;;
12469;SDS011;36499;46.484;13.832;2023-08-17T13:32:33;6.20;;;5.60;;
12469;SDS011;36499;46.484;13.832;2023-08-17T13:35:00;8.63;;;5.43;;
12469;SDS011;36499;46.484;13.832;2023-08-17T13:37:28;6.40;;;5.40;;
12469;SDS011;36499;46.484;13.832;2023-08-17T13:39:55;6.83;;;5.73;;
12469;SDS011;36499;46.484;13.832;2023-08-17T13:42:23;6.20;;;5.60;;
12469;SDS011;36499;46.484;13.832;2023-08-17T13:44:50;6.83;;;5.50;;
12469;SDS011;36499;46.484;13.832;2023-08-17T13:47:18;5.90;;;5.30;;
12469;SDS011;36499;46.484;13.832;2023-08-17T13:49:45;6.73;;;6.00;;
12469;SDS011;36499;46.484;13.832;2023-08-17T13:52:12;9.73;;;6.30;;
12469;SDS011;36499;46.484;13.832;2023-08-17T13:54:39;9.93;;;5.77;;
12469;SDS011;36499;46.484;13.832;2023-08-17T13:57:07;7.83;;;5.80;;
12469;SDS011;36499;46.484;13.832;2023-08-17T13:59:34;9.13;;;5.67;;
12469;SDS011;36499;46.484;13.832;2023-08-17T14:02:01;6.57;;;5.97;;
12469;SDS011;36499;46.484;13.832;2023-08-17T14:04:29;6.17;;;5.43;;
12469;SDS011;36499;46.484;13.832;2023-08-17T14:06:56;7.60;;;5.57;;
12469;SDS011;36499;46.484;13.832;2023-08-17T14:09:23;6.03;;;5.43;;
12469;SDS011;36499;46.484;13.832;2023-08-17T14:11:50;5.90;;;5.40;;
12469;SDS011;36499;46.484;13.832;2023-08-17T14:14:17;7.37;;;6.00;;
12469;SDS011;36499;46.484;13.832;2023-08-17T14:16:45;8.10;;;6.13;;
12469;SDS011;36499;46.484;13.832;2023-08-17T14:19:12;6.93;;;6.30;;
12469;SDS011;36499;46.484;13.832;2023-08-17T14:21:40;8.03;;;6.00;;
12469;SDS011;36499;46.484;13.832;2023-08-17T14:24:07;6.83;;;5.87;;
12469;SDS011;36499;46.484;13.832;2023-08-17T14:26:34;7.40;;;6.20;;
12469;SDS011;36499;46.484;13.832;2023-08-17T14:29:02;6.57;;;5.97;;
12469;SDS011;36499;46.484;13.832;2023-08-17T14:31:29;6.47;;;5.73;;
12469;SDS011;36499;46.484;13.832;2023-08-17T14:33:56;9.93;;;5.80;;